createdAt,value
2023-03-24T00:05:16.566Z,50.20
2023-03-24T00:07:19.433Z,41.67
2023-03-24T00:09:21.006Z,38.67
2023-03-24T00:11:22.467Z,34.00
2023-03-24T00:13:24.009Z,27.15
2023-03-24T00:15:25.836Z,36.72
2023-03-24T00:17:29.551Z,35.95
2023-03-24T00:19:31.089Z,35.38
2023-03-24T00:21:33.281Z,34.97
2023-03-24T00:23:35.111Z,32.08
2023-03-24T00:25:40.235Z,42.05
2023-03-24T00:27:48.835Z,46.72
2023-03-24T00:29:50.538Z,40.05
2023-03-24T00:31:52.928Z,40.50
2023-03-24T00:33:54.713Z,28.80
2023-03-24T00:36:14.755Z,32.97
2023-03-24T00:38:16.223Z,31.45
2023-03-24T00:40:19.329Z,39.60
2023-03-24T00:42:24.682Z,36.83
2023-03-24T00:44:26.160Z,35.30
2023-03-24T00:46:30.856Z,43.15
2023-03-24T00:48:35.389Z,44.67
2023-03-24T00:50:39.645Z,41.15
2023-03-24T00:52:44.166Z,30.30
2023-03-24T00:54:46.022Z,36.80
2023-03-24T00:56:49.833Z,32.05
2023-03-24T00:58:57.819Z,47.00
2023-03-24T01:03:22.115Z,39.35
2023-03-24T01:05:28.118Z,39.65
2023-03-24T01:07:32.670Z,36.70
2023-03-24T01:13:41.962Z,36.42
2023-03-24T01:15:46.394Z,49.83
2023-03-24T01:17:53.496Z,41.42
2023-03-24T01:21:56.392Z,40.92
2023-03-24T01:26:07.650Z,45.92
2023-03-24T01:28:09.100Z,48.95
2023-03-24T01:30:13.134Z,45.80
2023-03-24T01:36:23.230Z,42.47
2023-03-24T01:40:28.090Z,51.08
2023-03-24T01:42:32.817Z,54.78
2023-03-24T01:44:38.249Z,38.42
2023-03-24T01:46:39.792Z,41.55
2023-03-24T01:48:50.764Z,45.70
2023-03-24T01:51:03.135Z,45.30
2023-03-24T01:53:23.799Z,44.90
2023-03-24T01:55:28.389Z,39.75
2023-03-24T01:57:30.864Z,44.15
2023-03-24T01:59:36.212Z,45.33
2023-03-24T02:01:38.344Z,47.75
2023-03-24T02:03:40.434Z,51.33
2023-03-24T02:05:46.060Z,49.80
2023-03-24T02:08:12.529Z,62.60
2023-03-24T02:10:15.739Z,40.10
2023-03-24T02:12:20.707Z,49.22
2023-03-24T02:14:22.839Z,59.35
2023-03-24T02:16:24.484Z,47.80
2023-03-24T02:18:33.188Z,54.17
2023-03-24T02:21:04.753Z,42.70
2023-03-24T02:23:18.351Z,54.47
2023-03-24T02:27:52.643Z,47.65
2023-03-24T02:30:00.409Z,44.00
2023-03-24T02:32:12.711Z,54.38
2023-03-24T02:34:37.346Z,56.88
2023-03-24T02:36:55.358Z,57.80
2023-03-24T02:39:16.266Z,56.38
2023-03-24T02:41:17.869Z,44.67
2023-03-24T02:43:44.999Z,50.15
2023-03-24T02:46:18.940Z,45.05
2023-03-24T02:48:26.319Z,87.82
2023-03-24T02:51:05.333Z,61.20
2023-03-24T02:53:13.117Z,56.65
2023-03-24T02:55:31.643Z,57.20
2023-03-24T02:57:36.356Z,41.00
2023-03-24T02:59:46.813Z,61.28
2023-03-24T03:06:08.320Z,59.75
2023-03-24T03:10:35.789Z,57.05
2023-03-24T03:12:38.130Z,66.78
2023-03-24T03:14:51.192Z,37.95
2023-03-24T03:17:00.394Z,50.08
2023-03-24T03:19:09.889Z,54.85
2023-03-24T03:21:13.195Z,59.10
2023-03-24T03:23:15.731Z,48.97
2023-03-24T03:25:25.609Z,52.88
2023-03-24T03:27:46.896Z,57.70
2023-03-24T03:29:51.506Z,45.17
2023-03-24T03:31:59.698Z,44.63
2023-03-24T03:34:22.423Z,48.92
2023-03-24T03:36:29.215Z,42.85
2023-03-24T03:38:33.455Z,40.53
2023-03-24T03:40:41.340Z,38.80
2023-03-24T03:43:02.249Z,44.75
2023-03-24T03:45:10.249Z,46.25
2023-03-24T03:47:15.892Z,51.13
2023-03-24T03:49:17.382Z,40.72
2023-03-24T03:51:21.946Z,48.25
2023-03-24T03:53:33.847Z,35.38
2023-03-24T03:55:36.083Z,48.45
2023-03-24T03:57:43.320Z,34.95
2023-03-24T03:59:44.873Z,49.85
2023-03-24T04:01:49.588Z,47.90
2023-03-24T04:04:02.762Z,52.22
2023-03-24T04:06:16.131Z,54.63
2023-03-24T04:08:17.827Z,46.90
2023-03-24T04:10:19.516Z,54.22
2023-03-24T04:12:37.824Z,53.15
2023-03-24T04:16:52.933Z,47.10
2023-03-24T04:25:32.224Z,50.55
2023-03-24T04:27:40.265Z,43.53
2023-03-24T04:29:55.297Z,48.65
2023-03-24T04:32:02.820Z,52.38
2023-03-24T04:34:12.198Z,45.25
2023-03-24T04:36:22.652Z,49.78
2023-03-24T04:38:27.855Z,49.08
2023-03-24T04:40:33.148Z,50.85
2023-03-24T04:42:46.753Z,40.70
2023-03-24T04:44:51.411Z,69.68
2023-03-24T04:46:57.873Z,52.65
2023-03-24T04:49:03.539Z,54.85
2023-03-24T04:51:09.235Z,44.20
2023-03-24T04:53:13.630Z,59.10
2023-03-24T04:55:32.163Z,53.03
2023-03-24T04:57:33.764Z,50.78
2023-03-24T05:03:59.923Z,49.40
2023-03-24T05:06:01.660Z,58.10
2023-03-24T05:08:04.147Z,37.50
2023-03-24T05:10:06.544Z,42.80
2023-03-24T05:12:11.178Z,41.47
2023-03-24T05:14:16.192Z,56.60
2023-03-24T05:16:20.870Z,51.80
2023-03-24T05:18:22.542Z,55.60
2023-03-24T05:20:24.442Z,53.30
2023-03-24T05:22:31.530Z,58.42
2023-03-24T05:24:36.008Z,63.65
2023-03-24T05:29:05.419Z,65.90
2023-03-24T05:31:34.954Z,45.75
2023-03-24T05:33:47.560Z,59.90
2023-03-24T05:36:00.927Z,59.42
2023-03-24T05:38:12.337Z,44.40
2023-03-24T05:40:20.711Z,52.33
2023-03-24T05:42:28.278Z,45.33
2023-03-24T05:44:39.499Z,46.28
2023-03-24T05:46:52.561Z,48.00
2023-03-24T05:49:06.760Z,52.38
2023-03-24T05:51:21.254Z,46.83
2023-03-24T05:53:34.673Z,39.38
2023-03-24T05:55:47.391Z,50.85
2023-03-24T05:58:00.561Z,39.58
2023-03-24T06:00:15.785Z,56.55
2023-03-24T06:02:29.776Z,58.92
2023-03-24T06:04:51.740Z,38.45
2023-03-24T06:06:59.184Z,49.35
2023-03-24T06:09:04.816Z,25.02
2023-03-24T06:11:06.572Z,59.92
2023-03-24T06:13:09.510Z,47.80
2023-03-24T06:15:17.396Z,38.53
2023-03-24T06:17:22.240Z,32.25
2023-03-24T06:19:27.339Z,44.80
2023-03-24T06:21:32.435Z,36.60
2023-03-24T06:23:35.659Z,46.25
2023-03-24T06:27:46.257Z,45.90
2023-03-24T06:29:47.710Z,34.10
2023-03-24T06:32:08.824Z,47.90
2023-03-24T06:34:29.804Z,35.45
2023-03-24T06:36:34.807Z,35.42
2023-03-24T06:38:36.323Z,37.05
2023-03-24T06:40:41.025Z,25.38
2023-03-24T06:42:45.248Z,33.58
2023-03-24T06:44:49.405Z,37.85
2023-03-24T06:46:51.370Z,32.72
2023-03-24T06:48:55.873Z,46.42
2023-03-24T06:51:00.131Z,39.63
2023-03-24T06:53:04.649Z,40.65
2023-03-24T06:55:09.902Z,48.00
2023-03-24T06:57:11.945Z,34.22
2023-03-24T06:59:13.636Z,43.17
2023-03-24T07:01:18.091Z,42.85
2023-03-24T07:03:23.549Z,31.02
2023-03-24T07:05:25.057Z,37.40
2023-03-24T07:09:50.402Z,37.35
2023-03-24T07:11:51.963Z,39.53
2023-03-24T07:16:13.300Z,35.38
2023-03-24T07:18:19.412Z,33.15
2023-03-24T07:20:21.561Z,36.53
2023-03-24T07:22:26.051Z,28.38
2023-03-24T07:24:31.698Z,42.67
2023-03-24T07:26:33.373Z,23.27
2023-03-24T07:28:43.900Z,35.30
2023-03-24T07:30:45.537Z,26.58
2023-03-24T07:32:49.926Z,29.00
2023-03-24T07:34:54.492Z,41.83
2023-03-24T07:37:14.801Z,25.17
2023-03-24T07:43:25.024Z,36.55
2023-03-24T07:45:29.487Z,30.27
2023-03-24T07:47:31.666Z,42.38
2023-03-24T07:49:33.105Z,32.78
2023-03-24T07:51:36.651Z,33.58
2023-03-24T07:53:40.151Z,32.70
2023-03-24T07:55:44.226Z,39.83
2023-03-24T07:57:49.657Z,38.50
2023-03-24T08:00:17.901Z,23.33
2023-03-24T08:02:20.039Z,24.38
2023-03-24T08:04:24.639Z,32.85
2023-03-24T08:06:26.219Z,27.98
2023-03-24T08:08:31.649Z,30.58
2023-03-24T08:10:35.900Z,26.02
2023-03-24T08:17:01.622Z,28.30
2023-03-24T08:19:06.441Z,27.02
2023-03-24T08:21:08.257Z,20.55
2023-03-24T08:23:09.837Z,39.10
2023-03-24T08:25:14.730Z,30.48
2023-03-24T08:27:17.089Z,24.65
2023-03-24T08:29:37.801Z,23.98
2023-03-24T08:31:57.905Z,32.80
2023-03-24T08:34:05.860Z,26.58
2023-03-24T08:36:10.481Z,21.73
2023-03-24T08:38:12.699Z,20.42
2023-03-24T08:40:19.597Z,28.50
2023-03-24T08:42:24.074Z,21.55
2023-03-24T08:44:30.180Z,18.05
2023-03-24T08:46:33.338Z,23.75
2023-03-24T08:48:53.740Z,20.65
2023-03-24T08:50:55.874Z,24.45
2023-03-24T08:52:57.457Z,25.35
2023-03-24T08:54:59.045Z,30.17
2023-03-24T08:57:03.700Z,18.60
2023-03-24T08:59:06.778Z,23.20
2023-03-24T09:01:11.249Z,27.65
2023-03-24T09:03:18.513Z,28.83
2023-03-24T09:05:29.308Z,32.00
2023-03-24T09:07:38.791Z,22.42
2023-03-24T09:09:40.501Z,20.52
2023-03-24T09:11:42.066Z,23.88
2023-03-24T09:13:43.698Z,17.77
2023-03-24T09:15:49.037Z,15.65
2023-03-24T09:17:53.756Z,24.73
2023-03-24T09:19:58.381Z,9.45
2023-03-24T09:22:00.775Z,20.67
2023-03-24T09:24:05.400Z,22.52
2023-03-24T09:26:07.491Z,18.50
2023-03-24T09:28:08.897Z,16.67
2023-03-24T09:30:13.743Z,17.60
2023-03-24T09:32:15.400Z,10.77
2023-03-24T09:34:16.781Z,21.85
2023-03-24T09:36:21.553Z,19.60
2023-03-24T09:38:23.105Z,19.20
2023-03-24T09:40:37.110Z,15.82
2023-03-24T09:42:41.570Z,14.82
2023-03-24T09:44:50.183Z,20.08
2023-03-24T09:46:54.851Z,17.75
2023-03-24T09:48:59.085Z,17.60
2023-03-24T09:51:06.783Z,20.45
2023-03-24T09:53:40.450Z,14.63
2023-03-24T09:55:43.750Z,22.98
2023-03-24T09:57:47.078Z,24.50
2023-03-24T09:59:51.124Z,17.98
2023-03-24T10:01:56.593Z,15.65
2023-03-24T10:03:59.361Z,13.80
2023-03-24T10:06:15.773Z,17.10
2023-03-24T10:08:22.976Z,16.27
2023-03-24T10:10:36.597Z,19.42
2023-03-24T10:12:45.288Z,11.55
2023-03-24T10:15:06.189Z,21.20
2023-03-24T10:17:20.934Z,18.10
2023-03-24T10:19:37.275Z,22.77
2023-03-24T10:21:39.507Z,23.30
2023-03-24T10:23:48.520Z,22.63
2023-03-24T10:26:04.831Z,12.30
2023-03-24T10:28:17.242Z,16.98
2023-03-24T10:30:23.437Z,19.98
2023-03-24T10:32:26.238Z,21.85
2023-03-24T10:34:29.632Z,20.00
2023-03-24T10:36:34.154Z,23.35
2023-03-24T10:38:38.599Z,19.65
2023-03-24T10:40:42.964Z,20.60
2023-03-24T10:42:45.891Z,17.67
2023-03-24T10:44:51.061Z,32.42
2023-03-24T10:46:53.919Z,31.60
2023-03-24T10:49:08.483Z,23.92
2023-03-24T10:53:20.743Z,29.52
2023-03-24T10:55:43.410Z,28.73
2023-03-24T10:57:50.028Z,33.88
2023-03-24T11:00:00.468Z,28.52
2023-03-24T11:02:10.463Z,29.17
2023-03-24T11:04:14.273Z,30.77
2023-03-24T11:06:20.119Z,31.50
2023-03-24T11:08:25.916Z,24.15
2023-03-24T11:10:27.573Z,27.92
2023-03-24T11:12:32.700Z,23.65
2023-03-24T11:15:07.524Z,19.60
2023-03-24T11:17:20.578Z,30.67
2023-03-24T11:19:23.160Z,30.55
2023-03-24T11:21:32.002Z,34.80
2023-03-24T11:23:34.871Z,31.25
2023-03-24T11:25:40.685Z,35.83
2023-03-24T11:27:45.045Z,27.40
2023-03-24T11:29:51.781Z,36.25
2023-03-24T11:31:58.421Z,34.40
2023-03-24T11:34:07.627Z,23.65
2023-03-24T11:36:28.141Z,34.40
2023-03-24T11:38:34.648Z,26.23
2023-03-24T11:41:09.928Z,22.90
2023-03-24T11:43:27.993Z,29.15
2023-03-24T11:46:02.584Z,26.95
2023-03-24T11:48:24.460Z,30.85
2023-03-24T11:50:32.403Z,23.05
2023-03-24T11:53:11.518Z,14.18
2023-03-24T11:55:59.231Z,25.30
2023-03-24T11:58:11.695Z,21.98
2023-03-24T12:00:23.388Z,14.68
2023-03-24T12:02:48.914Z,17.42
2023-03-24T12:05:20.318Z,20.15
2023-03-24T12:07:41.797Z,32.08
2023-03-24T12:09:50.798Z,29.30
2023-03-24T12:11:54.021Z,22.73
2023-03-24T12:14:01.377Z,14.00
2023-03-24T12:16:22.436Z,23.42
2023-03-24T12:18:39.596Z,24.95
2023-03-24T12:20:47.308Z,20.33
2023-03-24T12:23:00.523Z,28.23
2023-03-24T12:25:28.499Z,22.13
2023-03-24T12:27:40.296Z,30.85
2023-03-24T12:29:44.400Z,32.10
2023-03-24T12:32:00.584Z,27.35
2023-03-24T12:34:20.684Z,17.13
2023-03-24T12:36:37.178Z,22.73
2023-03-24T12:38:54.168Z,20.88
2023-03-24T12:40:58.715Z,24.15
2023-03-24T12:43:09.544Z,21.23
2023-03-24T12:45:17.002Z,19.45
2023-03-24T12:47:27.197Z,18.10
2023-03-24T12:49:53.860Z,21.40
2023-03-24T12:52:15.196Z,17.25
2023-03-24T12:54:29.937Z,15.32
2023-03-24T12:56:35.702Z,18.80
2023-03-24T12:58:43.124Z,14.88
2023-03-24T13:00:57.058Z,15.00
2023-03-24T13:03:04.922Z,12.35
2023-03-24T13:05:37.932Z,20.02
2023-03-24T13:07:44.127Z,12.57
2023-03-24T13:09:46.209Z,14.05
2023-03-24T13:11:55.809Z,11.32
2023-03-24T13:14:18.912Z,14.05
2023-03-24T13:16:23.034Z,8.70
2023-03-24T13:18:29.792Z,17.33
2023-03-24T13:20:53.860Z,16.25
2023-03-24T13:22:59.614Z,13.50
2023-03-24T13:25:05.012Z,16.42
2023-03-24T13:27:23.669Z,11.27
2023-03-24T13:29:38.338Z,19.70
2023-03-24T13:32:09.857Z,11.88
2023-03-24T13:34:48.952Z,15.32
2023-03-24T13:36:52.841Z,21.92
2023-03-24T13:38:56.208Z,20.45
2023-03-24T13:41:05.010Z,16.83
2023-03-24T13:43:10.676Z,21.38
2023-03-24T13:45:30.131Z,16.13
2023-03-24T13:47:53.800Z,15.32
2023-03-24T13:50:16.009Z,23.92
2023-03-24T13:52:22.972Z,24.58
2023-03-24T13:54:27.324Z,24.65
2023-03-24T13:56:34.089Z,22.75
2023-03-24T13:59:04.877Z,21.15
2023-03-24T14:01:09.721Z,28.27
2023-03-24T14:03:17.221Z,20.88
2023-03-24T14:05:40.539Z,16.45
2023-03-24T14:07:46.165Z,16.13
2023-03-24T14:09:57.712Z,20.70
2023-03-24T14:12:19.591Z,23.17
2023-03-24T14:14:27.566Z,20.88
2023-03-24T14:16:31.824Z,23.80
2023-03-24T14:18:37.703Z,16.50
2023-03-24T14:20:58.304Z,14.18
2023-03-24T14:23:03.553Z,16.33
2023-03-24T14:25:17.107Z,23.95
2023-03-24T14:27:23.842Z,11.50
2023-03-24T14:29:47.379Z,18.98
2023-03-24T14:31:50.868Z,20.40
2023-03-24T14:34:02.242Z,16.23
2023-03-24T14:36:27.255Z,20.48
2023-03-24T14:38:28.752Z,15.50
2023-03-24T14:40:32.242Z,16.38
2023-03-24T14:42:56.110Z,13.60
2023-03-24T14:45:00.659Z,21.48
2023-03-24T14:47:11.360Z,24.38
2023-03-24T14:49:26.063Z,21.38
2023-03-24T14:51:43.633Z,23.73
2023-03-24T14:54:06.891Z,21.17
2023-03-24T14:56:31.920Z,20.77
2023-03-24T14:58:41.100Z,16.10
2023-03-24T15:01:07.190Z,20.55
2023-03-24T15:03:21.473Z,25.05
2023-03-24T15:05:33.974Z,23.50
2023-03-24T15:08:02.685Z,17.77
2023-03-24T15:10:20.767Z,22.05
2023-03-24T15:12:27.570Z,17.80
2023-03-24T15:14:50.216Z,26.02
2023-03-24T15:17:21.083Z,17.02
2023-03-24T15:19:26.809Z,18.52
2023-03-24T15:21:32.947Z,19.20
2023-03-24T15:23:34.604Z,21.63
2023-03-24T15:25:41.460Z,19.10
2023-03-24T15:28:01.440Z,24.92
2023-03-24T15:30:08.944Z,29.60
2023-03-24T15:32:21.082Z,24.15
2023-03-24T15:34:25.392Z,27.88
2023-03-24T15:36:28.055Z,17.67
2023-03-24T15:38:33.569Z,19.85
2023-03-24T15:40:36.490Z,21.65
2023-03-24T15:42:41.730Z,19.40
2023-03-24T15:44:43.417Z,19.60
2023-03-24T15:46:48.234Z,23.80
2023-03-24T15:49:16.485Z,21.25
2023-03-24T15:51:18.029Z,20.23
2023-03-24T15:53:19.432Z,28.85
2023-03-24T15:55:31.955Z,23.67
2023-03-24T15:57:53.622Z,19.50
2023-03-24T15:59:58.438Z,27.42
2023-03-24T16:02:10.781Z,17.75
2023-03-24T16:04:16.877Z,20.73
2023-03-24T16:06:26.989Z,27.92
2023-03-24T16:08:41.203Z,21.95
2023-03-24T16:10:55.470Z,21.45
2023-03-24T16:13:05.593Z,30.38
2023-03-24T16:15:12.955Z,26.08
2023-03-24T16:17:17.236Z,20.60
2023-03-24T16:19:21.657Z,26.15
2023-03-24T16:21:27.813Z,25.60
2023-03-24T16:23:29.942Z,24.25
2023-03-24T16:25:32.622Z,17.05
2023-03-24T16:27:52.693Z,25.17
2023-03-24T16:29:54.171Z,22.90
2023-03-24T16:31:58.808Z,26.02
2023-03-24T16:34:03.351Z,24.45
2023-03-24T16:36:05.172Z,20.95
2023-03-24T16:38:12.590Z,20.40
2023-03-24T16:40:22.424Z,17.38
2023-03-24T16:42:27.136Z,15.75
2023-03-24T16:44:28.659Z,22.65
2023-03-24T16:46:34.083Z,21.15
2023-03-24T16:48:38.248Z,19.33
2023-03-24T16:50:58.332Z,12.82
2023-03-24T16:53:04.679Z,31.05
2023-03-24T16:55:06.333Z,19.48
2023-03-24T16:57:10.622Z,26.02
2023-03-24T16:59:15.625Z,25.83
2023-03-24T17:01:27.282Z,26.65
2023-03-24T17:03:31.999Z,23.45
2023-03-24T17:05:39.299Z,19.20
2023-03-24T17:07:43.446Z,23.60
2023-03-24T17:09:50.032Z,23.60
2023-03-24T17:11:52.621Z,14.60
2023-03-24T17:13:54.488Z,12.63
2023-03-24T17:15:58.732Z,21.35
2023-03-24T17:18:00.918Z,13.60
2023-03-24T17:20:05.858Z,17.95
2023-03-24T17:22:07.367Z,12.35
2023-03-24T17:24:10.776Z,12.35
2023-03-24T17:26:12.468Z,13.50
2023-03-24T17:28:14.834Z,8.85
2023-03-24T17:30:17.916Z,11.57
2023-03-24T17:32:21.152Z,10.68
2023-03-24T17:34:23.742Z,8.60
2023-03-24T17:36:25.375Z,8.52
2023-03-24T17:38:32.767Z,10.60
2023-03-24T17:40:34.354Z,11.45
2023-03-24T17:42:36.477Z,11.32
2023-03-24T17:44:38.124Z,12.13
2023-03-24T17:46:39.708Z,13.05
2023-03-24T17:48:42.900Z,17.88
2023-03-24T17:50:49.333Z,16.02
2023-03-24T17:53:15.117Z,21.08
2023-03-24T17:55:35.167Z,29.63
2023-03-24T17:57:56.945Z,17.25
2023-03-24T17:59:58.644Z,20.63
2023-03-24T18:02:00.497Z,14.82
2023-03-24T18:04:05.230Z,23.83
2023-03-24T18:06:11.941Z,24.70
2023-03-24T18:08:13.630Z,30.75
2023-03-24T18:10:18.664Z,22.42
2023-03-24T18:12:21.121Z,22.05
2023-03-24T18:14:41.262Z,21.90
2023-03-24T18:16:42.798Z,26.38
2023-03-24T18:20:51.447Z,30.10
2023-03-24T18:22:53.232Z,19.75
2023-03-24T18:24:58.424Z,26.75
2023-03-24T18:27:03.889Z,18.77
2023-03-24T18:29:08.329Z,21.90
2023-03-24T18:31:10.594Z,20.00
2023-03-24T18:33:15.961Z,21.70
2023-03-24T18:35:20.465Z,26.15
2023-03-24T18:37:25.203Z,33.53
2023-03-24T18:41:30.809Z,22.33
2023-03-24T18:43:37.971Z,29.00
2023-03-24T18:45:39.657Z,21.58
2023-03-24T18:47:41.151Z,22.27
2023-03-24T18:49:42.783Z,35.40
2023-03-24T18:51:45.289Z,27.48
2023-03-24T18:53:47.709Z,19.90
2023-03-24T18:55:50.326Z,28.92
2023-03-24T18:57:55.011Z,33.38
2023-03-24T19:00:00.895Z,20.65
2023-03-24T19:02:02.434Z,28.83
2023-03-24T19:04:08.152Z,21.20
2023-03-24T19:06:10.990Z,19.20
2023-03-24T19:08:16.094Z,28.60
2023-03-24T19:10:20.288Z,22.75
2023-03-24T19:12:21.678Z,16.98
2023-03-24T19:14:26.530Z,32.10
2023-03-24T19:16:28.185Z,28.13
2023-03-24T19:18:32.476Z,31.27
2023-03-24T19:20:35.127Z,23.17
2023-03-24T19:22:41.586Z,29.55
2023-03-24T19:24:45.620Z,31.17
2023-03-24T19:26:47.022Z,35.78
2023-03-24T19:28:51.831Z,26.25
2023-03-24T19:30:53.694Z,23.33
2023-03-24T19:32:58.293Z,27.30
2023-03-24T19:34:59.936Z,31.33
2023-03-24T19:37:04.100Z,30.00
2023-03-24T19:41:11.211Z,23.23
2023-03-24T19:43:15.389Z,22.30
2023-03-24T19:45:17.651Z,22.98
2023-03-24T19:47:38.023Z,23.83
2023-03-24T19:49:42.350Z,25.48
2023-03-24T19:51:47.352Z,21.88
2023-03-24T19:53:49.074Z,20.08
2023-03-24T19:55:50.979Z,18.20
2023-03-24T19:57:52.666Z,23.33
2023-03-24T19:59:59.444Z,21.42
2023-03-24T20:02:03.586Z,30.13
2023-03-24T20:04:07.963Z,34.10
2023-03-24T20:06:12.573Z,24.40
2023-03-24T20:08:19.214Z,28.38
2023-03-24T20:10:21.670Z,25.15
2023-03-24T20:12:27.066Z,23.67
2023-03-24T20:14:31.864Z,15.50
2023-03-24T20:16:51.880Z,22.35
2023-03-24T20:18:56.585Z,25.10
2023-03-24T20:21:01.584Z,19.15
2023-03-24T20:23:22.458Z,28.30
2023-03-24T20:25:27.230Z,26.38
2023-03-24T20:27:28.783Z,28.20
2023-03-24T20:29:30.384Z,33.50
2023-03-24T20:31:32.324Z,36.00
2023-03-24T20:33:36.554Z,27.02
2023-03-24T20:35:39.795Z,41.33
2023-03-24T20:37:44.411Z,29.95
2023-03-24T20:39:48.705Z,36.33
2023-03-24T20:41:50.142Z,37.47
2023-03-24T20:44:10.306Z,21.55
2023-03-24T20:46:16.517Z,24.08
2023-03-24T20:48:21.394Z,27.75
2023-03-24T20:50:25.858Z,28.83
2023-03-24T20:52:28.594Z,38.30
2023-03-24T20:54:30.031Z,23.33
2023-03-24T20:56:42.573Z,34.92
2023-03-24T20:58:46.145Z,28.90
2023-03-24T21:00:54.728Z,30.63
2023-03-24T21:03:09.561Z,33.10
2023-03-24T21:05:26.099Z,25.85
2023-03-24T21:07:33.970Z,25.35
2023-03-24T21:09:41.376Z,27.27
2023-03-24T21:11:48.703Z,33.45
2023-03-24T21:13:57.891Z,19.88
2023-03-24T21:16:08.863Z,29.70
2023-03-24T21:18:17.284Z,30.38
2023-03-24T21:20:31.346Z,24.38
2023-03-24T21:22:58.520Z,31.92
2023-03-24T21:25:07.836Z,30.75
2023-03-24T21:29:39.018Z,26.58
2023-03-24T21:31:51.701Z,21.92
2023-03-24T21:34:00.897Z,27.55
2023-03-24T21:36:15.822Z,25.05
2023-03-24T21:38:18.937Z,30.67
2023-03-24T21:40:21.943Z,23.85
2023-03-24T21:42:24.050Z,15.52
2023-03-24T21:44:25.506Z,22.80
2023-03-24T21:46:27.893Z,12.48
2023-03-24T21:48:40.086Z,6.68
2023-03-24T21:51:01.137Z,12.88
2023-03-24T21:53:14.828Z,5.28
2023-03-24T21:55:20.979Z,11.85
2023-03-24T21:57:28.243Z,11.02
2023-03-24T21:59:48.422Z,8.52
2023-03-24T22:01:52.280Z,11.00
2023-03-24T22:03:58.840Z,12.95
2023-03-24T22:06:00.625Z,11.45
2023-03-24T22:08:02.545Z,16.80
2023-03-24T22:10:05.777Z,20.58
2023-03-24T22:12:10.512Z,19.83
2023-03-24T22:16:17.619Z,32.45
2023-03-24T22:18:22.860Z,20.00
2023-03-24T22:20:31.889Z,29.20
2023-03-24T22:24:34.884Z,21.25
2023-03-24T22:26:36.401Z,26.77
